createdAt,value
2023-09-27T00:02:39.228Z,8.60
2023-09-27T00:07:26.659Z,9.02
2023-09-27T00:12:16.906Z,10.20
2023-09-27T00:17:06.434Z,11.15
2023-09-27T00:21:53.698Z,8.50
2023-09-27T00:26:40.962Z,9.07
2023-09-27T00:31:30.783Z,9.30
2023-09-27T00:36:18.198Z,9.38
2023-09-27T00:41:05.654Z,9.18
2023-09-27T00:45:54.903Z,11.95
2023-09-27T00:50:45.318Z,10.98
2023-09-27T00:55:32.584Z,9.93
2023-09-27T01:00:20.917Z,9.90
2023-09-27T01:05:08.903Z,11.10
2023-09-27T01:09:58.795Z,10.20
2023-09-27T01:14:46.594Z,8.77
2023-09-27T01:19:34.705Z,9.73
2023-09-27T01:24:24.514Z,11.85
2023-09-27T01:29:11.809Z,8.25
2023-09-27T01:34:00.694Z,10.63
2023-09-27T01:38:47.834Z,10.90
2023-09-27T01:43:37.639Z,9.30
2023-09-27T01:48:24.833Z,10.73
2023-09-27T01:53:12.222Z,11.85
2023-09-27T01:58:00.420Z,10.10
2023-09-27T02:02:52.805Z,10.30
2023-09-27T02:07:40.662Z,10.10
2023-09-27T02:12:27.792Z,8.93
2023-09-27T02:17:15.102Z,9.40
2023-09-27T02:22:04.937Z,12.35
2023-09-27T02:26:52.260Z,10.23
2023-09-27T02:31:39.642Z,11.25
2023-09-27T02:36:27.361Z,10.95
2023-09-27T02:41:17.171Z,12.88
2023-09-27T02:46:04.483Z,11.85
2023-09-27T02:50:52.378Z,10.23
2023-09-27T02:55:39.590Z,13.88
2023-09-27T03:00:33.010Z,9.77
2023-09-27T03:05:23.319Z,11.90
2023-09-27T03:10:10.996Z,10.45
2023-09-27T03:14:58.638Z,10.57
2023-09-27T03:19:50.122Z,13.45
2023-09-27T03:24:38.990Z,10.20
2023-09-27T03:29:28.878Z,12.57
2023-09-27T03:34:16.338Z,10.05
2023-09-27T03:39:08.062Z,11.27
2023-09-27T03:43:55.520Z,12.05
2023-09-27T03:48:42.818Z,11.48
2023-09-27T03:53:30.267Z,11.18
2023-09-27T03:58:20.133Z,10.60
2023-09-27T04:03:07.593Z,11.07
2023-09-27T04:07:55.060Z,11.45
2023-09-27T04:12:42.376Z,10.75
2023-09-27T04:17:32.237Z,13.60
2023-09-27T04:22:20.214Z,17.02
2023-09-27T04:27:07.432Z,13.40
2023-09-27T04:31:54.762Z,12.35
2023-09-27T04:36:44.692Z,13.02
2023-09-27T04:41:31.937Z,15.90
2023-09-27T04:46:19.840Z,15.75
2023-09-27T04:51:07.272Z,15.07
2023-09-27T04:55:57.179Z,17.08
2023-09-27T05:00:44.472Z,17.50
2023-09-27T05:05:35.119Z,15.85
2023-09-27T05:10:22.419Z,17.25
2023-09-27T05:15:12.425Z,15.60
2023-09-27T05:19:59.654Z,15.23
2023-09-27T05:24:46.873Z,17.25
2023-09-27T05:29:34.028Z,16.08
2023-09-27T05:34:24.131Z,17.95
2023-09-27T05:39:11.590Z,19.02
2023-09-27T05:43:58.861Z,18.50
2023-09-27T05:48:46.434Z,20.20
2023-09-27T05:53:37.547Z,17.95
2023-09-27T05:58:24.788Z,18.27
2023-09-27T06:03:12.047Z,17.83
2023-09-27T06:08:03.224Z,17.23
2023-09-27T06:12:53.207Z,18.92
2023-09-27T06:17:43.578Z,18.63
2023-09-27T06:22:30.807Z,22.23
2023-09-27T06:27:18.218Z,20.85
2023-09-27T06:32:08.339Z,20.52
2023-09-27T06:36:55.632Z,20.63
2023-09-27T06:41:43.045Z,21.25
2023-09-27T06:46:42.964Z,22.35
2023-09-27T06:51:38.241Z,21.52
2023-09-27T06:56:25.421Z,23.63
2023-09-27T07:01:12.771Z,22.45
2023-09-27T07:06:00.437Z,24.88
2023-09-27T07:11:04.109Z,24.55
2023-09-27T07:15:53.475Z,29.88
2023-09-27T07:20:41.935Z,31.00
2023-09-27T07:25:29.170Z,28.02
2023-09-27T07:30:21.622Z,26.88
2023-09-27T07:35:09.657Z,25.75
2023-09-27T07:39:56.964Z,31.48
2023-09-27T07:44:44.261Z,27.98
2023-09-27T07:49:34.139Z,33.83
2023-09-27T07:54:21.336Z,32.25
2023-09-27T07:59:08.859Z,31.55
2023-09-27T08:03:56.339Z,31.08
2023-09-27T08:08:46.862Z,29.83
2023-09-27T08:13:34.315Z,32.67
2023-09-27T08:18:21.844Z,28.30
2023-09-27T08:23:09.493Z,28.42
2023-09-27T08:27:59.434Z,29.33
2023-09-27T08:32:46.892Z,27.10
2023-09-27T08:37:34.148Z,30.33
2023-09-27T08:42:22.029Z,28.77
2023-09-27T08:47:12.069Z,29.60
2023-09-27T08:51:59.393Z,29.02
2023-09-27T08:56:49.573Z,30.42
2023-09-27T09:01:40.100Z,28.60
2023-09-27T09:06:30.194Z,29.42
2023-09-27T09:11:17.532Z,31.00
2023-09-27T09:16:14.782Z,27.27
2023-09-27T09:21:02.235Z,26.80
2023-09-27T09:25:52.112Z,29.15
2023-09-27T09:30:40.899Z,28.95
2023-09-27T09:35:31.852Z,29.73
2023-09-27T09:40:19.054Z,24.00
2023-09-27T09:45:10.425Z,24.02
2023-09-27T09:49:57.647Z,18.25
2023-09-27T09:54:46.625Z,21.08
2023-09-27T09:59:38.100Z,18.20
2023-09-27T10:04:29.667Z,19.13
2023-09-27T10:09:18.455Z,15.95
2023-09-27T10:14:06.811Z,16.13
2023-09-27T10:18:55.723Z,18.58
2023-09-27T10:24:05.303Z,14.15
2023-09-27T10:29:14.203Z,15.52
2023-09-27T10:34:01.581Z,20.08
2023-09-27T10:39:04.399Z,14.85
2023-09-27T10:43:51.832Z,16.35
2023-09-27T10:48:39.314Z,14.10
2023-09-27T10:53:29.353Z,15.52
2023-09-27T10:58:19.998Z,14.98
2023-09-27T11:03:28.317Z,13.90
2023-09-27T11:08:25.934Z,17.77
2023-09-27T11:13:25.089Z,15.20
2023-09-27T11:18:13.415Z,12.93
2023-09-27T11:23:01.630Z,13.57
2023-09-27T11:27:48.861Z,13.85
2023-09-27T11:32:54.783Z,14.40
2023-09-27T11:37:42.254Z,13.55
2023-09-27T11:42:29.502Z,10.45
2023-09-27T11:47:16.879Z,8.20
2023-09-27T11:52:07.182Z,11.60
2023-09-27T11:56:54.675Z,9.45
2023-09-27T12:01:42.051Z,10.07
2023-09-27T12:06:29.646Z,8.73
2023-09-27T12:11:19.810Z,9.05
2023-09-27T12:16:07.180Z,7.90
2023-09-27T12:20:54.656Z,7.97
2023-09-27T12:25:41.906Z,8.73
2023-09-27T12:30:32.151Z,6.80
2023-09-27T12:35:19.322Z,6.90
2023-09-27T12:40:08.211Z,5.00
2023-09-27T12:44:55.387Z,7.60
2023-09-27T12:49:45.278Z,7.82
2023-09-27T12:54:32.448Z,6.07
2023-09-27T12:59:19.774Z,10.63
2023-09-27T13:04:07.395Z,5.90
2023-09-27T13:08:57.613Z,5.85
2023-09-27T13:13:44.777Z,6.47
2023-09-27T13:18:31.889Z,7.40
2023-09-27T13:23:19.419Z,7.13
2023-09-27T13:28:09.418Z,5.93
2023-09-27T13:32:56.653Z,5.55
2023-09-27T13:37:43.904Z,10.18
2023-09-27T13:42:31.058Z,8.20
2023-09-27T13:47:20.937Z,6.55
2023-09-27T13:52:08.076Z,4.97
2023-09-27T13:56:55.217Z,5.95
2023-09-27T14:01:42.389Z,6.13
2023-09-27T14:06:32.181Z,5.53
2023-09-27T14:11:19.598Z,8.63
2023-09-27T14:16:06.819Z,8.00
2023-09-27T14:20:54.288Z,7.07
2023-09-27T14:25:44.199Z,4.00
2023-09-27T14:30:31.474Z,5.38
2023-09-27T14:35:18.924Z,5.35
2023-09-27T14:40:07.645Z,7.28
2023-09-27T14:44:57.499Z,4.75
2023-09-27T14:49:44.770Z,4.25
2023-09-27T14:54:31.954Z,6.85
2023-09-27T14:59:19.156Z,7.43
2023-09-27T15:04:09.389Z,5.70
2023-09-27T15:08:56.626Z,7.00
2023-09-27T15:13:43.724Z,5.85
2023-09-27T15:18:31.147Z,5.10
2023-09-27T15:23:21.229Z,8.02
2023-09-27T15:28:08.578Z,5.45
2023-09-27T15:32:55.691Z,8.68
2023-09-27T15:37:52.003Z,5.07
2023-09-27T15:42:41.820Z,4.97
2023-09-27T15:47:29.089Z,6.57
2023-09-27T15:52:16.261Z,6.07
2023-09-27T15:57:03.450Z,9.02
2023-09-27T16:01:53.278Z,4.85
2023-09-27T16:06:40.542Z,6.38
2023-09-27T16:11:27.914Z,7.47
2023-09-27T16:16:15.056Z,11.82
2023-09-27T16:21:04.885Z,7.40
2023-09-27T16:25:52.050Z,6.22
2023-09-27T16:30:40.419Z,9.63
2023-09-27T16:35:28.275Z,5.57
2023-09-27T16:40:18.456Z,5.13
2023-09-27T16:45:06.656Z,6.85
2023-09-27T16:49:53.858Z,6.03
2023-09-27T16:54:41.245Z,8.10
2023-09-27T16:59:31.243Z,8.55
2023-09-27T17:04:18.517Z,5.55
2023-09-27T17:09:05.881Z,9.07
2023-09-27T17:13:53.390Z,11.35
2023-09-27T17:18:43.428Z,9.82
2023-09-27T17:23:30.617Z,7.35
2023-09-27T17:28:17.857Z,9.88
2023-09-27T17:33:05.803Z,10.60
2023-09-27T17:37:55.685Z,8.90
2023-09-27T17:42:42.879Z,7.70
2023-09-27T17:47:30.170Z,10.20
2023-09-27T17:52:17.328Z,10.52
2023-09-27T17:57:07.186Z,10.35
2023-09-27T18:01:54.406Z,9.70
2023-09-27T18:06:41.659Z,11.55
2023-09-27T18:11:28.751Z,9.18
2023-09-27T18:16:19.746Z,10.75
2023-09-27T18:21:06.892Z,8.45
2023-09-27T18:25:54.003Z,7.50
2023-09-27T18:30:41.138Z,13.95
2023-09-27T18:35:31.398Z,11.27
2023-09-27T18:40:19.567Z,8.23
2023-09-27T18:45:08.331Z,9.27
2023-09-27T18:49:55.557Z,10.38
2023-09-27T18:54:45.527Z,11.80
2023-09-27T18:59:32.805Z,12.48
2023-09-27T19:04:20.243Z,10.00
2023-09-27T19:09:07.569Z,7.85
2023-09-27T19:13:57.661Z,9.15
2023-09-27T19:18:45.106Z,10.57
2023-09-27T19:23:33.187Z,10.27
2023-09-27T19:28:21.882Z,12.02
2023-09-27T19:33:12.017Z,8.18
2023-09-27T19:37:59.386Z,8.85
2023-09-27T19:42:46.690Z,10.80
2023-09-27T19:47:36.165Z,9.43
2023-09-27T19:52:26.399Z,10.70
2023-09-27T19:57:13.737Z,6.20
2023-09-27T20:02:01.149Z,12.13
2023-09-27T20:06:48.532Z,11.43
2023-09-27T20:11:38.763Z,7.18
2023-09-27T20:16:26.195Z,9.77
2023-09-27T20:21:14.086Z,9.40
2023-09-27T20:26:02.136Z,6.38
2023-09-27T20:30:52.152Z,9.73
2023-09-27T20:35:39.604Z,8.55
2023-09-27T20:40:27.175Z,7.22
2023-09-27T20:45:14.696Z,7.75
2023-09-27T20:50:05.123Z,12.48
2023-09-27T20:54:52.557Z,9.10
2023-09-27T20:59:39.856Z,6.45
2023-09-27T21:04:27.368Z,6.57
2023-09-27T21:09:17.493Z,8.15
2023-09-27T21:14:05.305Z,6.05
2023-09-27T21:18:53.064Z,9.05
2023-09-27T21:23:40.366Z,7.20
2023-09-27T21:28:30.233Z,9.88
2023-09-27T21:33:17.493Z,6.55
2023-09-27T21:38:05.174Z,5.60
2023-09-27T21:42:52.611Z,8.45
2023-09-27T21:47:42.547Z,6.95
2023-09-27T21:52:29.900Z,9.40
2023-09-27T21:57:17.277Z,4.57
2023-09-27T22:02:04.509Z,8.05
2023-09-27T22:06:54.487Z,9.20
2023-09-27T22:11:41.829Z,6.15
2023-09-27T22:16:29.178Z,7.50
2023-09-27T22:21:24.049Z,7.47
2023-09-27T22:26:16.343Z,8.07
2023-09-27T22:31:04.482Z,6.90
2023-09-27T22:36:01.832Z,7.35
2023-09-27T22:40:49.197Z,7.03
2023-09-27T22:45:39.576Z,5.78
2023-09-27T22:50:27.020Z,6.63
2023-09-27T22:55:14.460Z,4.38
2023-09-27T23:00:01.790Z,6.03
2023-09-27T23:04:51.832Z,4.97
2023-09-27T23:09:39.095Z,5.72
2023-09-27T23:14:26.295Z,4.88
2023-09-27T23:19:14.401Z,5.43
2023-09-27T23:24:04.929Z,4.47
2023-09-27T23:28:52.207Z,5.18
2023-09-27T23:33:40.789Z,3.92
2023-09-27T23:38:28.027Z,5.28
2023-09-27T23:43:17.948Z,8.32
2023-09-27T23:48:08.261Z,7.97
2023-09-27T23:52:55.589Z,13.57
2023-09-27T23:57:43.538Z,13.70
